sensor_id;sensor_type;location;lat;lon;timestamp;P1;durP1;ratioP1;P2;durP2;ratioP2
34902;SDS011;21114;44.840;0.214;2024-02-14T06:46:50;6.07;;;4.43;;
34902;SDS011;21114;44.840;0.214;2024-02-14T06:49:16;9.15;;;5.15;;
34902;SDS011;21114;44.840;0.214;2024-02-14T06:51:42;6.72;;;3.60;;
34902;SDS011;21114;44.840;0.214;2024-02-14T06:54:10;4.72;;;3.78;;
34902;SDS011;21114;44.840;0.214;2024-02-14T06:56:37;6.80;;;3.63;;
34902;SDS011;21114;44.840;0.214;2024-02-14T06:59:03;6.38;;;4.43;;
34902;SDS011;21114;44.840;0.214;2024-02-14T07:01:30;8.98;;;5.07;;
34902;SDS011;21114;44.840;0.214;2024-02-14T07:03:57;13.80;;;9.35;;
34902;SDS011;21114;44.840;0.214;2024-02-14T07:06:24;6.25;;;4.40;;
34902;SDS011;21114;44.840;0.214;2024-02-14T07:08:50;6.80;;;4.43;;
34902;SDS011;21114;44.840;0.214;2024-02-14T07:11:16;5.95;;;4.30;;
34902;SDS011;21114;44.840;0.214;2024-02-14T07:13:43;13.77;;;6.40;;
34902;SDS011;21114;44.840;0.214;2024-02-14T07:16:09;20.80;;;8.80;;
34902;SDS011;21114;44.840;0.214;2024-02-14T07:18:35;24.60;;;15.73;;
34902;SDS011;21114;44.840;0.214;2024-02-14T07:21:01;6.68;;;5.57;;
34902;SDS011;21114;44.840;0.214;2024-02-14T07:23:29;5.30;;;4.35;;
34902;SDS011;21114;44.840;0.214;2024-02-14T08:12:55;5.93;;;4.75;;
34902;SDS011;21114;44.840;0.214;2024-02-14T08:15:22;7.47;;;5.45;;
34902;SDS011;21114;44.840;0.214;2024-02-14T08:17:48;8.05;;;4.07;;
34902;SDS011;21114;44.840;0.214;2024-02-14T08:20:14;4.93;;;3.50;;
34902;SDS011;21114;44.840;0.214;2024-02-14T08:22:40;5.85;;;4.50;;
34902;SDS011;21114;44.840;0.214;2024-02-14T08:25:06;6.85;;;3.83;;
34902;SDS011;21114;44.840;0.214;2024-02-14T08:28:21;6.35;;;4.82;;
34902;SDS011;21114;44.840;0.214;2024-02-14T08:30:47;8.52;;;7.20;;
34902;SDS011;21114;44.840;0.214;2024-02-14T08:33:50;9.82;;;6.85;;
34902;SDS011;21114;44.840;0.214;2024-02-14T08:36:16;7.38;;;5.78;;
34902;SDS011;21114;44.840;0.214;2024-02-14T08:38:44;5.55;;;4.75;;
34902;SDS011;21114;44.840;0.214;2024-02-14T08:41:10;5.38;;;4.32;;
34902;SDS011;21114;44.840;0.214;2024-02-14T08:43:36;6.45;;;5.85;;
34902;SDS011;21114;44.840;0.214;2024-02-14T08:46:02;6.63;;;5.40;;
34902;SDS011;21114;44.840;0.214;2024-02-14T08:48:28;10.35;;;7.50;;
34902;SDS011;21114;44.840;0.214;2024-02-14T08:50:58;8.77;;;6.00;;
34902;SDS011;21114;44.840;0.214;2024-02-14T08:53:25;14.95;;;5.05;;
34902;SDS011;21114;44.840;0.214;2024-02-14T08:55:52;9.35;;;4.50;;
34902;SDS011;21114;44.840;0.214;2024-02-14T08:58:18;5.75;;;4.60;;
34902;SDS011;21114;44.840;0.214;2024-02-14T09:01:32;7.25;;;5.80;;
34902;SDS011;21114;44.840;0.214;2024-02-14T09:04:01;6.25;;;4.18;;
34902;SDS011;21114;44.840;0.214;2024-02-14T09:06:27;7.50;;;4.25;;
34902;SDS011;21114;44.840;0.214;2024-02-14T09:08:53;4.70;;;3.60;;
34902;SDS011;21114;44.840;0.214;2024-02-14T09:11:19;6.13;;;4.50;;
34902;SDS011;21114;44.840;0.214;2024-02-14T09:13:47;6.95;;;5.43;;
34902;SDS011;21114;44.840;0.214;2024-02-14T09:16:16;5.18;;;4.05;;
34902;SDS011;21114;44.840;0.214;2024-02-14T09:18:42;7.88;;;4.40;;
34902;SDS011;21114;44.840;0.214;2024-02-14T09:21:44;6.40;;;4.25;;
34902;SDS011;21114;44.840;0.214;2024-02-14T09:24:10;7.13;;;3.65;;
34902;SDS011;21114;44.840;0.214;2024-02-14T09:26:37;4.22;;;3.83;;
34902;SDS011;21114;44.840;0.214;2024-02-14T09:29:04;7.18;;;4.88;;
34902;SDS011;21114;44.840;0.214;2024-02-14T09:31:30;9.52;;;5.90;;
34902;SDS011;21114;44.840;0.214;2024-02-14T09:33:56;13.27;;;8.90;;
34902;SDS011;21114;44.840;0.214;2024-02-14T09:36:23;7.30;;;4.95;;
34902;SDS011;21114;44.840;0.214;2024-02-14T09:38:49;7.97;;;6.03;;
34902;SDS011;21114;44.840;0.214;2024-02-14T09:41:32;4.95;;;3.90;;
34902;SDS011;21114;44.840;0.214;2024-02-14T09:44:50;5.43;;;3.83;;
34902;SDS011;21114;44.840;0.214;2024-02-14T09:48:07;5.32;;;3.55;;
34902;SDS011;21114;44.840;0.214;2024-02-14T09:50:33;6.38;;;3.63;;
34902;SDS011;21114;44.840;0.214;2024-02-14T09:52:59;9.52;;;4.35;;
34902;SDS011;21114;44.840;0.214;2024-02-14T09:56:14;7.45;;;4.80;;
34902;SDS011;21114;44.840;0.214;2024-02-14T09:58:43;4.57;;;3.70;;
34902;SDS011;21114;44.840;0.214;2024-02-14T10:01:57;10.63;;;4.38;;
34902;SDS011;21114;44.840;0.214;2024-02-14T10:04:23;7.07;;;3.70;;
34902;SDS011;21114;44.840;0.214;2024-02-14T10:06:50;9.15;;;5.25;;
34902;SDS011;21114;44.840;0.214;2024-02-14T10:10:05;4.63;;;3.58;;
34902;SDS011;21114;44.840;0.214;2024-02-14T10:13:20;8.05;;;6.10;;
34902;SDS011;21114;44.840;0.214;2024-02-14T10:15:47;5.15;;;3.88;;
34902;SDS011;21114;44.840;0.214;2024-02-14T10:18:14;8.13;;;5.38;;
34902;SDS011;21114;44.840;0.214;2024-02-14T10:21:29;8.35;;;5.43;;
34902;SDS011;21114;44.840;0.214;2024-02-14T10:24:43;6.80;;;3.88;;
34902;SDS011;21114;44.840;0.214;2024-02-14T10:28:06;5.50;;;3.75;;
34902;SDS011;21114;44.840;0.214;2024-02-14T10:31:23;7.47;;;3.33;;
34902;SDS011;21114;44.840;0.214;2024-02-14T10:34:38;5.70;;;3.55;;
34902;SDS011;21114;44.840;0.214;2024-02-14T10:37:54;7.38;;;3.67;;
34902;SDS011;21114;44.840;0.214;2024-02-14T10:40:25;6.57;;;3.58;;
34902;SDS011;21114;44.840;0.214;2024-02-14T10:43:40;4.50;;;2.80;;
34902;SDS011;21114;44.840;0.214;2024-02-14T10:46:10;3.65;;;2.80;;
34902;SDS011;21114;44.840;0.214;2024-02-14T10:49:27;4.47;;;3.42;;
34902;SDS011;21114;44.840;0.214;2024-02-14T10:52:43;4.22;;;2.95;;
34902;SDS011;21114;44.840;0.214;2024-02-14T10:55:20;8.05;;;3.17;;
34902;SDS011;21114;44.840;0.214;2024-02-14T10:58:35;6.25;;;3.20;;
34902;SDS011;21114;44.840;0.214;2024-02-14T11:01:01;5.10;;;3.25;;
34902;SDS011;21114;44.840;0.214;2024-02-14T11:03:28;5.13;;;3.40;;
34902;SDS011;21114;44.840;0.214;2024-02-14T11:06:00;6.63;;;3.20;;
34902;SDS011;21114;44.840;0.214;2024-02-14T11:09:15;4.93;;;2.90;;
34902;SDS011;21114;44.840;0.214;2024-02-14T11:12:33;4.75;;;2.40;;
34902;SDS011;21114;44.840;0.214;2024-02-14T11:15:46;7.20;;;3.10;;
34902;SDS011;21114;44.840;0.214;2024-02-14T11:22:22;2.70;;;1.80;;
34902;SDS011;21114;44.840;0.214;2024-02-14T11:24:48;3.83;;;2.67;;
34902;SDS011;21114;44.840;0.214;2024-02-14T11:27:17;4.47;;;3.17;;
34902;SDS011;21114;44.840;0.214;2024-02-14T11:30:34;2.83;;;1.80;;
34902;SDS011;21114;44.840;0.214;2024-02-14T11:33:51;5.28;;;2.63;;
34902;SDS011;21114;44.840;0.214;2024-02-14T11:37:06;6.60;;;2.20;;
34902;SDS011;21114;44.840;0.214;2024-02-14T11:40:21;2.47;;;1.73;;
34902;SDS011;21114;44.840;0.214;2024-02-14T11:43:35;7.95;;;3.33;;
34902;SDS011;21114;44.840;0.214;2024-02-14T11:46:50;5.45;;;3.70;;
34902;SDS011;21114;44.840;0.214;2024-02-14T11:49:55;3.72;;;2.17;;
34902;SDS011;21114;44.840;0.214;2024-02-14T11:53:10;2.33;;;1.75;;
34902;SDS011;21114;44.840;0.214;2024-02-14T11:56:35;2.47;;;1.52;;
34902;SDS011;21114;44.840;0.214;2024-02-14T11:59:23;1.75;;;1.60;;
34902;SDS011;21114;44.840;0.214;2024-02-14T12:01:59;3.55;;;1.67;;
34902;SDS011;21114;44.840;0.214;2024-02-14T12:04:27;2.58;;;1.73;;
34902;SDS011;21114;44.840;0.214;2024-02-14T12:07:42;1.75;;;1.20;;
34902;SDS011;21114;44.840;0.214;2024-02-14T12:10:09;7.65;;;2.55;;
34902;SDS011;21114;44.840;0.214;2024-02-14T12:13:23;1.38;;;1.05;;
34902;SDS011;21114;44.840;0.214;2024-02-14T12:16:39;2.05;;;1.40;;
34902;SDS011;21114;44.840;0.214;2024-02-14T12:19:15;3.63;;;0.90;;
34902;SDS011;21114;44.840;0.214;2024-02-14T12:22:29;4.93;;;1.50;;
34902;SDS011;21114;44.840;0.214;2024-02-14T12:25:47;2.03;;;1.42;;
34902;SDS011;21114;44.840;0.214;2024-02-14T12:29:04;2.53;;;1.40;;
34902;SDS011;21114;44.840;0.214;2024-02-14T12:32:03;5.93;;;3.08;;
34902;SDS011;21114;44.840;0.214;2024-02-14T12:35:17;2.22;;;1.25;;
34902;SDS011;21114;44.840;0.214;2024-02-14T12:37:43;3.88;;;1.30;;
34902;SDS011;21114;44.840;0.214;2024-02-14T12:40:58;1.65;;;1.17;;
34902;SDS011;21114;44.840;0.214;2024-02-14T12:43:27;1.65;;;0.95;;
34902;SDS011;21114;44.840;0.214;2024-02-14T12:45:53;2.92;;;1.00;;
34902;SDS011;21114;44.840;0.214;2024-02-14T12:48:23;3.38;;;1.50;;
34902;SDS011;21114;44.840;0.214;2024-02-14T12:51:38;3.33;;;2.17;;
34902;SDS011;21114;44.840;0.214;2024-02-14T12:54:53;2.38;;;1.63;;
34902;SDS011;21114;44.840;0.214;2024-02-14T12:57:54;1.85;;;1.10;;
34902;SDS011;21114;44.840;0.214;2024-02-14T13:00:42;2.50;;;1.33;;
34902;SDS011;21114;44.840;0.214;2024-02-14T13:03:09;2.60;;;1.30;;
34902;SDS011;21114;44.840;0.214;2024-02-14T13:05:36;3.33;;;1.20;;
34902;SDS011;21114;44.840;0.214;2024-02-14T13:08:50;1.55;;;1.13;;
34902;SDS011;21114;44.840;0.214;2024-02-14T13:11:20;3.40;;;1.48;;
34902;SDS011;21114;44.840;0.214;2024-02-14T13:14:35;3.05;;;1.83;;
34902;SDS011;21114;44.840;0.214;2024-02-14T13:17:01;2.75;;;1.52;;
34902;SDS011;21114;44.840;0.214;2024-02-14T13:19:29;4.03;;;1.17;;
34902;SDS011;21114;44.840;0.214;2024-02-14T13:22:43;1.63;;;1.25;;
34902;SDS011;21114;44.840;0.214;2024-02-14T13:25:09;1.67;;;1.10;;
34902;SDS011;21114;44.840;0.214;2024-02-14T13:27:35;2.33;;;1.27;;
34902;SDS011;21114;44.840;0.214;2024-02-14T13:30:02;1.77;;;1.30;;
34902;SDS011;21114;44.840;0.214;2024-02-14T13:32:28;3.05;;;1.55;;
34902;SDS011;21114;44.840;0.214;2024-02-14T13:34:54;3.88;;;1.42;;
34902;SDS011;21114;44.840;0.214;2024-02-14T13:38:08;2.80;;;2.17;;
34902;SDS011;21114;44.840;0.214;2024-02-14T13:41:23;2.38;;;1.30;;
34902;SDS011;21114;44.840;0.214;2024-02-14T13:44:38;1.48;;;1.23;;
34902;SDS011;21114;44.840;0.214;2024-02-14T13:47:04;1.52;;;1.20;;
34902;SDS011;21114;44.840;0.214;2024-02-14T13:49:30;2.45;;;1.55;;
34902;SDS011;21114;44.840;0.214;2024-02-14T13:51:56;4.63;;;1.40;;
34902;SDS011;21114;44.840;0.214;2024-02-14T13:55:11;1.95;;;0.93;;
34902;SDS011;21114;44.840;0.214;2024-02-14T13:58:25;2.40;;;0.93;;
34902;SDS011;21114;44.840;0.214;2024-02-14T14:00:51;3.58;;;1.95;;
34902;SDS011;21114;44.840;0.214;2024-02-14T14:04:06;2.58;;;0.98;;
34902;SDS011;21114;44.840;0.214;2024-02-14T14:07:20;1.55;;;0.98;;
34902;SDS011;21114;44.840;0.214;2024-02-14T14:10:35;2.08;;;0.85;;
34902;SDS011;21114;44.840;0.214;2024-02-14T14:13:01;3.05;;;1.17;;
34902;SDS011;21114;44.840;0.214;2024-02-14T14:16:15;2.42;;;1.20;;
34902;SDS011;21114;44.840;0.214;2024-02-14T14:19:30;3.00;;;1.77;;
34902;SDS011;21114;44.840;0.214;2024-02-14T14:22:44;3.75;;;1.60;;
34902;SDS011;21114;44.840;0.214;2024-02-14T14:25:10;8.90;;;2.30;;
34902;SDS011;21114;44.840;0.214;2024-02-14T14:27:36;2.33;;;2.00;;
34902;SDS011;21114;44.840;0.214;2024-02-14T14:30:02;2.13;;;1.48;;
34902;SDS011;21114;44.840;0.214;2024-02-14T14:33:19;2.92;;;1.98;;
34902;SDS011;21114;44.840;0.214;2024-02-14T14:36:33;2.58;;;1.92;;
34902;SDS011;21114;44.840;0.214;2024-02-14T14:39:47;2.55;;;1.60;;
34902;SDS011;21114;44.840;0.214;2024-02-14T14:43:02;2.05;;;1.20;;
34902;SDS011;21114;44.840;0.214;2024-02-14T14:46:17;2.85;;;1.38;;
34902;SDS011;21114;44.840;0.214;2024-02-14T14:49:31;2.80;;;1.60;;
34902;SDS011;21114;44.840;0.214;2024-02-14T14:52:48;1.58;;;1.20;;
34902;SDS011;21114;44.840;0.214;2024-02-14T14:55:14;5.65;;;1.45;;
34902;SDS011;21114;44.840;0.214;2024-02-14T14:58:28;7.47;;;1.30;;
34902;SDS011;21114;44.840;0.214;2024-02-14T15:00:58;1.85;;;1.52;;
34902;SDS011;21114;44.840;0.214;2024-02-14T15:04:13;1.20;;;0.60;;
34902;SDS011;21114;44.840;0.214;2024-02-14T15:06:39;2.35;;;1.00;;
34902;SDS011;21114;44.840;0.214;2024-02-14T15:09:06;2.50;;;1.10;;
34902;SDS011;21114;44.840;0.214;2024-02-14T15:12:20;2.80;;;1.17;;
34902;SDS011;21114;44.840;0.214;2024-02-14T15:14:51;1.90;;;1.48;;
34902;SDS011;21114;44.840;0.214;2024-02-14T15:17:17;4.18;;;1.30;;
34902;SDS011;21114;44.840;0.214;2024-02-14T15:19:43;1.27;;;1.05;;
34902;SDS011;21114;44.840;0.214;2024-02-14T15:22:52;6.00;;;2.75;;
34902;SDS011;21114;44.840;0.214;2024-02-14T15:25:18;1.13;;;1.02;;
34902;SDS011;21114;44.840;0.214;2024-02-14T15:27:45;1.10;;;0.82;;
34902;SDS011;21114;44.840;0.214;2024-02-14T15:31:05;1.48;;;1.00;;
34902;SDS011;21114;44.840;0.214;2024-02-14T15:34:39;1.90;;;1.38;;
34902;SDS011;21114;44.840;0.214;2024-02-14T15:37:06;2.03;;;1.23;;
34902;SDS011;21114;44.840;0.214;2024-02-14T15:40:21;4.03;;;1.13;;
34902;SDS011;21114;44.840;0.214;2024-02-14T15:42:47;3.55;;;0.80;;
34902;SDS011;21114;44.840;0.214;2024-02-14T15:46:02;1.95;;;0.93;;
34902;SDS011;21114;44.840;0.214;2024-02-14T15:48:28;1.48;;;0.90;;
34902;SDS011;21114;44.840;0.214;2024-02-14T15:51:42;2.13;;;1.30;;
34902;SDS011;21114;44.840;0.214;2024-02-14T15:54:57;2.08;;;1.30;;
34902;SDS011;21114;44.840;0.214;2024-02-14T15:57:23;2.08;;;1.40;;
34902;SDS011;21114;44.840;0.214;2024-02-14T16:00:40;2.55;;;2.10;;
34902;SDS011;21114;44.840;0.214;2024-02-14T16:03:06;2.28;;;1.73;;
34902;SDS011;21114;44.840;0.214;2024-02-14T16:06:21;3.50;;;2.67;;
34902;SDS011;21114;44.840;0.214;2024-02-14T16:09:35;2.97;;;2.05;;
34902;SDS011;21114;44.840;0.214;2024-02-14T16:12:02;3.92;;;1.83;;
34902;SDS011;21114;44.840;0.214;2024-02-14T16:14:28;1.65;;;1.30;;
34902;SDS011;21114;44.840;0.214;2024-02-14T16:17:42;2.33;;;1.50;;
34902;SDS011;21114;44.840;0.214;2024-02-14T16:20:54;2.17;;;1.75;;
34902;SDS011;21114;44.840;0.214;2024-02-14T16:23:20;4.97;;;3.65;;
34902;SDS011;21114;44.840;0.214;2024-02-14T16:26:34;4.65;;;2.30;;
34902;SDS011;21114;44.840;0.214;2024-02-14T16:29:48;2.72;;;2.35;;
34902;SDS011;21114;44.840;0.214;2024-02-14T16:32:15;2.40;;;1.33;;
34902;SDS011;21114;44.840;0.214;2024-02-14T16:35:31;9.90;;;3.20;;
34902;SDS011;21114;44.840;0.214;2024-02-14T16:37:57;3.65;;;1.67;;
34902;SDS011;21114;44.840;0.214;2024-02-14T16:40:49;4.75;;;2.60;;
34902;SDS011;21114;44.840;0.214;2024-02-14T16:43:15;2.85;;;2.58;;
34902;SDS011;21114;44.840;0.214;2024-02-14T16:46:31;3.58;;;2.83;;
34902;SDS011;21114;44.840;0.214;2024-02-14T16:49:46;3.03;;;2.05;;
34902;SDS011;21114;44.840;0.214;2024-02-14T16:52:12;4.35;;;2.50;;
34902;SDS011;21114;44.840;0.214;2024-02-14T16:54:38;3.10;;;2.20;;
34902;SDS011;21114;44.840;0.214;2024-02-14T16:57:04;3.15;;;2.55;;
34902;SDS011;21114;44.840;0.214;2024-02-14T16:59:34;4.78;;;3.67;;
34902;SDS011;21114;44.840;0.214;2024-02-14T17:02:48;4.50;;;3.13;;
34902;SDS011;21114;44.840;0.214;2024-02-14T17:06:02;4.28;;;3.28;;
34902;SDS011;21114;44.840;0.214;2024-02-14T17:08:57;4.95;;;3.45;;
34902;SDS011;21114;44.840;0.214;2024-02-14T17:11:23;5.60;;;3.30;;
34902;SDS011;21114;44.840;0.214;2024-02-14T17:13:50;5.65;;;3.35;;
34902;SDS011;21114;44.840;0.214;2024-02-14T17:16:17;6.15;;;4.20;;
34902;SDS011;21114;44.840;0.214;2024-02-14T17:18:44;7.78;;;4.50;;
34902;SDS011;21114;44.840;0.214;2024-02-14T17:21:10;5.75;;;4.13;;
34902;SDS011;21114;44.840;0.214;2024-02-14T17:23:37;7.15;;;3.80;;
34902;SDS011;21114;44.840;0.214;2024-02-14T17:26:05;5.82;;;3.00;;
34902;SDS011;21114;44.840;0.214;2024-02-14T17:29:19;6.15;;;5.55;;
34902;SDS011;21114;44.840;0.214;2024-02-14T17:32:34;13.85;;;9.88;;
34902;SDS011;21114;44.840;0.214;2024-02-14T17:35:48;10.77;;;6.93;;
34902;SDS011;21114;44.840;0.214;2024-02-14T17:38:14;7.18;;;4.05;;
34902;SDS011;21114;44.840;0.214;2024-02-14T17:40:40;6.88;;;4.30;;
34902;SDS011;21114;44.840;0.214;2024-02-14T17:43:06;4.43;;;3.33;;
34902;SDS011;21114;44.840;0.214;2024-02-14T17:45:33;5.75;;;3.58;;
34902;SDS011;21114;44.840;0.214;2024-02-14T17:48:47;4.30;;;3.13;;
34902;SDS011;21114;44.840;0.214;2024-02-14T17:51:49;5.68;;;4.05;;
34902;SDS011;21114;44.840;0.214;2024-02-14T17:54:16;3.33;;;2.40;;
34902;SDS011;21114;44.840;0.214;2024-02-14T17:56:43;2.70;;;1.80;;
34902;SDS011;21114;44.840;0.214;2024-02-14T17:59:57;4.05;;;2.00;;
34902;SDS011;21114;44.840;0.214;2024-02-14T18:03:12;3.55;;;1.92;;
34902;SDS011;21114;44.840;0.214;2024-02-14T18:05:38;2.67;;;1.92;;
34902;SDS011;21114;44.840;0.214;2024-02-14T18:08:52;3.78;;;2.40;;
34902;SDS011;21114;44.840;0.214;2024-02-14T18:12:07;5.78;;;4.38;;
34902;SDS011;21114;44.840;0.214;2024-02-14T18:14:33;8.02;;;6.05;;
34902;SDS011;21114;44.840;0.214;2024-02-14T18:17:50;8.65;;;4.43;;
34902;SDS011;21114;44.840;0.214;2024-02-14T18:21:06;8.15;;;5.32;;
34902;SDS011;21114;44.840;0.214;2024-02-14T18:23:50;6.93;;;4.00;;
34902;SDS011;21114;44.840;0.214;2024-02-14T18:26:16;6.00;;;3.97;;
34902;SDS011;21114;44.840;0.214;2024-02-14T18:28:42;5.00;;;4.32;;
34902;SDS011;21114;44.840;0.214;2024-02-14T18:31:57;4.18;;;3.22;;
34902;SDS011;21114;44.840;0.214;2024-02-14T18:34:23;6.70;;;3.70;;
34902;SDS011;21114;44.840;0.214;2024-02-14T18:36:49;4.13;;;2.78;;
34902;SDS011;21114;44.840;0.214;2024-02-14T18:39:15;6.32;;;4.05;;
34902;SDS011;21114;44.840;0.214;2024-02-14T18:41:41;5.53;;;3.40;;
34902;SDS011;21114;44.840;0.214;2024-02-14T18:44:51;5.25;;;3.67;;
34902;SDS011;21114;44.840;0.214;2024-02-14T18:47:59;6.63;;;3.15;;
34902;SDS011;21114;44.840;0.214;2024-02-14T18:50:25;3.58;;;3.00;;
34902;SDS011;21114;44.840;0.214;2024-02-14T18:52:51;4.38;;;3.13;;
34902;SDS011;21114;44.840;0.214;2024-02-14T18:55:18;4.50;;;3.28;;
34902;SDS011;21114;44.840;0.214;2024-02-14T18:58:33;4.53;;;3.33;;
34902;SDS011;21114;44.840;0.214;2024-02-14T19:01:47;5.68;;;5.05;;
34902;SDS011;21114;44.840;0.214;2024-02-14T19:04:13;10.20;;;6.15;;
34902;SDS011;21114;44.840;0.214;2024-02-14T19:06:39;7.00;;;4.70;;
34902;SDS011;21114;44.840;0.214;2024-02-14T19:09:05;6.40;;;5.28;;
34902;SDS011;21114;44.840;0.214;2024-02-14T19:12:20;6.05;;;4.95;;
34902;SDS011;21114;44.840;0.214;2024-02-14T19:15:35;10.73;;;6.25;;
34902;SDS011;21114;44.840;0.214;2024-02-14T19:18:49;4.78;;;3.47;;
34902;SDS011;21114;44.840;0.214;2024-02-14T19:21:16;6.47;;;3.50;;
34902;SDS011;21114;44.840;0.214;2024-02-14T19:24:31;8.93;;;3.20;;
34902;SDS011;21114;44.840;0.214;2024-02-14T19:27:45;5.53;;;4.22;;
34902;SDS011;21114;44.840;0.214;2024-02-14T19:30:11;7.82;;;4.65;;
34902;SDS011;21114;44.840;0.214;2024-02-14T19:32:38;7.47;;;3.22;;
34902;SDS011;21114;44.840;0.214;2024-02-14T19:35:52;8.57;;;4.07;;
34902;SDS011;21114;44.840;0.214;2024-02-14T19:38:19;5.00;;;4.20;;
34902;SDS011;21114;44.840;0.214;2024-02-14T19:40:45;7.90;;;4.63;;
34902;SDS011;21114;44.840;0.214;2024-02-14T19:43:11;13.57;;;4.95;;
34902;SDS011;21114;44.840;0.214;2024-02-14T19:45:38;11.05;;;6.80;;
34902;SDS011;21114;44.840;0.214;2024-02-14T19:48:04;18.58;;;13.95;;
34902;SDS011;21114;44.840;0.214;2024-02-14T19:51:01;15.68;;;11.48;;
34902;SDS011;21114;44.840;0.214;2024-02-14T19:53:28;18.50;;;14.43;;
34902;SDS011;21114;44.840;0.214;2024-02-14T19:55:54;13.40;;;11.95;;
34902;SDS011;21114;44.840;0.214;2024-02-14T19:58:22;15.05;;;12.57;;
34902;SDS011;21114;44.840;0.214;2024-02-14T20:01:36;14.18;;;11.02;;
34902;SDS011;21114;44.840;0.214;2024-02-14T20:04:53;18.42;;;12.90;;
34902;SDS011;21114;44.840;0.214;2024-02-14T20:08:07;32.65;;;22.13;;
34902;SDS011;21114;44.840;0.214;2024-02-14T20:10:33;33.30;;;25.13;;
34902;SDS011;21114;44.840;0.214;2024-02-14T20:13:49;34.72;;;26.08;;
34902;SDS011;21114;44.840;0.214;2024-02-14T20:17:04;32.00;;;23.80;;
34902;SDS011;21114;44.840;0.214;2024-02-14T20:19:30;29.15;;;23.27;;
34902;SDS011;21114;44.840;0.214;2024-02-14T20:21:57;21.45;;;16.05;;
34902;SDS011;21114;44.840;0.214;2024-02-14T20:24:23;17.38;;;11.48;;
34902;SDS011;21114;44.840;0.214;2024-02-14T20:27:38;15.13;;;12.32;;
34902;SDS011;21114;44.840;0.214;2024-02-14T20:30:05;18.70;;;13.05;;
34902;SDS011;21114;44.840;0.214;2024-02-14T20:33:19;18.92;;;11.20;;
34902;SDS011;21114;44.840;0.214;2024-02-14T20:35:49;12.27;;;8.52;;
34902;SDS011;21114;44.840;0.214;2024-02-14T20:38:54;10.90;;;7.15;;
34902;SDS011;21114;44.840;0.214;2024-02-14T20:42:08;10.77;;;8.13;;
34902;SDS011;21114;44.840;0.214;2024-02-14T20:45:23;10.10;;;7.00;;
34902;SDS011;21114;44.840;0.214;2024-02-14T20:47:49;8.43;;;7.05;;
34902;SDS011;21114;44.840;0.214;2024-02-14T20:51:04;11.52;;;7.68;;
34902;SDS011;21114;44.840;0.214;2024-02-14T20:53:30;9.45;;;6.75;;
34902;SDS011;21114;44.840;0.214;2024-02-14T20:56:44;10.65;;;7.85;;
34902;SDS011;21114;44.840;0.214;2024-02-14T20:59:10;10.38;;;7.93;;
34902;SDS011;21114;44.840;0.214;2024-02-14T21:01:36;7.35;;;5.28;;
34902;SDS011;21114;44.840;0.214;2024-02-14T21:04:03;7.05;;;5.45;;
34902;SDS011;21114;44.840;0.214;2024-02-14T21:06:52;9.32;;;6.60;;
34902;SDS011;21114;44.840;0.214;2024-02-14T21:10:07;8.63;;;6.13;;
34902;SDS011;21114;44.840;0.214;2024-02-14T21:12:35;8.43;;;6.85;;
34902;SDS011;21114;44.840;0.214;2024-02-14T21:15:49;16.48;;;12.95;;
34902;SDS011;21114;44.840;0.214;2024-02-14T21:18:56;25.75;;;19.33;;
34902;SDS011;21114;44.840;0.214;2024-02-14T21:21:22;19.38;;;14.18;;
34902;SDS011;21114;44.840;0.214;2024-02-14T21:23:48;16.85;;;14.38;;
34902;SDS011;21114;44.840;0.214;2024-02-14T21:26:14;12.77;;;11.13;;
34902;SDS011;21114;44.840;0.214;2024-02-14T21:28:40;11.18;;;8.13;;
34902;SDS011;21114;44.840;0.214;2024-02-14T21:31:55;10.00;;;7.57;;
34902;SDS011;21114;44.840;0.214;2024-02-14T21:34:21;9.93;;;7.05;;
34902;SDS011;21114;44.840;0.214;2024-02-14T21:36:47;8.48;;;7.18;;
34902;SDS011;21114;44.840;0.214;2024-02-14T21:39:13;9.52;;;7.22;;
34902;SDS011;21114;44.840;0.214;2024-02-14T21:41:40;8.60;;;6.47;;
34902;SDS011;21114;44.840;0.214;2024-02-14T21:44:55;9.40;;;7.43;;
34902;SDS011;21114;44.840;0.214;2024-02-14T21:47:21;10.38;;;7.93;;
34902;SDS011;21114;44.840;0.214;2024-02-14T21:49:47;8.75;;;6.25;;
34902;SDS011;21114;44.840;0.214;2024-02-14T21:52:13;11.75;;;7.95;;
34902;SDS011;21114;44.840;0.214;2024-02-14T21:54:40;12.55;;;8.57;;
34902;SDS011;21114;44.840;0.214;2024-02-14T21:57:54;10.55;;;6.80;;
34902;SDS011;21114;44.840;0.214;2024-02-14T22:01:09;9.45;;;7.20;;
34902;SDS011;21114;44.840;0.214;2024-02-14T22:03:35;11.82;;;7.85;;
34902;SDS011;21114;44.840;0.214;2024-02-14T22:06:01;10.98;;;6.93;;
34902;SDS011;21114;44.840;0.214;2024-02-14T22:08:27;10.52;;;6.05;;
34902;SDS011;21114;44.840;0.214;2024-02-14T22:11:42;10.57;;;7.97;;
34902;SDS011;21114;44.840;0.214;2024-02-14T22:14:08;15.35;;;9.13;;
34902;SDS011;21114;44.840;0.214;2024-02-14T22:16:55;8.73;;;7.35;;
34902;SDS011;21114;44.840;0.214;2024-02-14T22:20:10;8.77;;;6.03;;
34902;SDS011;21114;44.840;0.214;2024-02-14T22:23:25;8.98;;;6.03;;
34902;SDS011;21114;44.840;0.214;2024-02-14T22:25:51;7.22;;;6.13;;
34902;SDS011;21114;44.840;0.214;2024-02-14T22:28:20;8.20;;;6.00;;
34902;SDS011;21114;44.840;0.214;2024-02-14T22:30:48;8.02;;;6.50;;
34902;SDS011;21114;44.840;0.214;2024-02-14T22:33:14;8.75;;;7.22;;
34902;SDS011;21114;44.840;0.214;2024-02-14T22:36:29;8.60;;;6.20;;
34902;SDS011;21114;44.840;0.214;2024-02-14T22:39:43;8.13;;;6.40;;
34902;SDS011;21114;44.840;0.214;2024-02-14T22:42:09;9.43;;;6.70;;
34902;SDS011;21114;44.840;0.214;2024-02-14T22:44:39;8.43;;;6.57;;
34902;SDS011;21114;44.840;0.214;2024-02-14T22:47:53;10.05;;;6.38;;
34902;SDS011;21114;44.840;0.214;2024-02-14T22:50:19;11.25;;;5.97;;
34902;SDS011;21114;44.840;0.214;2024-02-14T22:53:33;9.35;;;6.43;;
34902;SDS011;21114;44.840;0.214;2024-02-14T22:56:00;10.15;;;7.88;;
34902;SDS011;21114;44.840;0.214;2024-02-14T22:58:26;7.32;;;5.97;;
34902;SDS011;21114;44.840;0.214;2024-02-14T23:00:52;10.25;;;6.78;;
34902;SDS011;21114;44.840;0.214;2024-02-14T23:04:06;9.50;;;5.93;;
34902;SDS011;21114;44.840;0.214;2024-02-14T23:06:56;11.70;;;8.25;;
34902;SDS011;21114;44.840;0.214;2024-02-14T23:09:24;11.88;;;6.80;;
34902;SDS011;21114;44.840;0.214;2024-02-14T23:11:52;11.25;;;7.28;;
34902;SDS011;21114;44.840;0.214;2024-02-14T23:14:18;10.32;;;7.28;;
34902;SDS011;21114;44.840;0.214;2024-02-14T23:16:44;10.75;;;8.35;;
34902;SDS011;21114;44.840;0.214;2024-02-14T23:19:10;11.27;;;6.93;;
34902;SDS011;21114;44.840;0.214;2024-02-14T23:21:36;9.55;;;6.95;;
34902;SDS011;21114;44.840;0.214;2024-02-14T23:24:51;9.52;;;6.88;;
34902;SDS011;21114;44.840;0.214;2024-02-14T23:27:17;8.07;;;6.45;;
34902;SDS011;21114;44.840;0.214;2024-02-14T23:29:43;8.65;;;6.38;;
34902;SDS011;21114;44.840;0.214;2024-02-14T23:32:09;9.57;;;6.13;;
34902;SDS011;21114;44.840;0.214;2024-02-14T23:34:36;8.82;;;5.53;;
34902;SDS011;21114;44.840;0.214;2024-02-14T23:37:50;9.18;;;5.63;;
34902;SDS011;21114;44.840;0.214;2024-02-14T23:40:16;8.07;;;5.15;;
34902;SDS011;21114;44.840;0.214;2024-02-14T23:42:42;8.43;;;6.07;;
34902;SDS011;21114;44.840;0.214;2024-02-14T23:45:09;9.27;;;6.32;;
34902;SDS011;21114;44.840;0.214;2024-02-14T23:48:23;7.53;;;5.53;;
34902;SDS011;21114;44.840;0.214;2024-02-14T23:51:38;7.13;;;5.30;;
34902;SDS011;21114;44.840;0.214;2024-02-14T23:54:53;11.63;;;7.03;;
34902;SDS011;21114;44.840;0.214;2024-02-14T23:58:07;7.68;;;5.07;;
